createdAt,value
2023-02-26T00:01:51.493Z,98288.32
2023-02-26T00:04:20.200Z,98303.56
2023-02-26T00:06:56.749Z,98312.52
2023-02-26T00:09:26.734Z,98324.27
2023-02-26T00:11:55.890Z,98343.02
2023-02-26T00:14:25.035Z,98363.11
2023-02-26T00:17:16.580Z,98384.16
2023-02-26T00:19:50.699Z,98413.46
2023-02-26T00:22:20.739Z,98434.97
2023-02-26T00:24:49.225Z,98457.46
2023-02-26T00:27:17.771Z,98471.95
2023-02-26T00:29:46.655Z,98490.08
2023-02-26T00:32:18.286Z,98497.26
2023-02-26T00:34:47.860Z,98506.55
2023-02-26T00:37:29.311Z,98512.10
2023-02-26T00:40:07.918Z,98528.19
2023-02-26T00:42:38.665Z,98544.45
2023-02-26T00:45:09.317Z,98548.09
2023-02-26T00:47:56.287Z,98557.97
2023-02-26T00:50:26.312Z,98562.86
2023-02-26T00:53:22.389Z,98570.17
2023-02-26T00:55:51.836Z,98577.30
2023-02-26T00:58:21.644Z,98588.59
2023-02-26T01:00:50.335Z,98591.84
2023-02-26T01:03:22.077Z,98613.73
2023-02-26T01:05:51.354Z,98636.04
2023-02-26T01:08:24.866Z,98643.89
2023-02-26T01:10:54.018Z,98653.54
2023-02-26T01:13:23.187Z,98662.16
2023-02-26T01:15:55.775Z,98678.98
2023-02-26T01:18:27.572Z,98689.44
2023-02-26T01:21:05.722Z,98691.50
2023-02-26T01:23:38.630Z,98692.45
2023-02-26T01:26:29.553Z,98689.98
2023-02-26T01:28:58.397Z,98686.56
2023-02-26T01:31:42.543Z,98689.12
2023-02-26T01:34:20.957Z,98697.52
2023-02-26T01:36:53.832Z,98702.20
2023-02-26T01:39:53.836Z,98698.23
2023-02-26T01:42:24.248Z,98682.77
2023-02-26T01:45:01.628Z,98685.35
2023-02-26T01:47:36.344Z,98696.89
2023-02-26T01:50:19.518Z,98704.52
2023-02-26T01:52:48.644Z,98701.70
2023-02-26T01:55:21.986Z,98687.85
2023-02-26T01:57:53.172Z,98684.46
2023-02-26T02:00:21.928Z,98679.38
2023-02-26T02:02:51.462Z,98672.29
2023-02-26T02:05:44.087Z,98665.89
2023-02-26T02:08:14.366Z,98663.61
2023-02-26T02:10:45.899Z,98664.13
2023-02-26T02:13:28.629Z,98669.83
2023-02-26T02:16:18.375Z,98679.06
2023-02-26T02:18:54.868Z,98679.20
2023-02-26T02:21:51.396Z,98690.98
2023-02-26T02:24:42.273Z,98708.80
2023-02-26T02:27:37.519Z,98716.09
2023-02-26T02:30:25.745Z,98719.17
2023-02-26T02:33:05.893Z,98728.36
2023-02-26T02:35:42.520Z,98738.69
2023-02-26T02:38:16.426Z,98746.38
2023-02-26T02:40:50.192Z,98748.89
2023-02-26T02:43:24.618Z,98757.14
2023-02-26T02:46:12.524Z,98765.87
2023-02-26T02:48:44.096Z,98774.14
2023-02-26T02:51:25.876Z,98770.64
2023-02-26T02:53:57.716Z,98774.16
2023-02-26T02:56:29.598Z,98788.61
2023-02-26T02:59:03.303Z,98793.65
2023-02-26T03:01:31.856Z,98795.44
2023-02-26T03:04:04.641Z,98806.87
2023-02-26T03:06:33.391Z,98811.96
2023-02-26T03:09:08.048Z,98818.55
2023-02-26T03:11:37.553Z,98832.58
2023-02-26T03:14:06.958Z,98839.86
2023-02-26T03:17:04.654Z,98848.08
2023-02-26T03:19:53.938Z,98857.58
2023-02-26T03:22:27.434Z,98860.14
2023-02-26T03:25:16.477Z,98867.66
2023-02-26T03:28:09.872Z,98876.45
2023-02-26T03:31:02.123Z,98886.83
2023-02-26T03:33:40.165Z,98900.79
2023-02-26T03:36:11.362Z,98910.26
2023-02-26T03:38:54.970Z,98920.86
2023-02-26T03:41:36.928Z,98931.92
2023-02-26T03:44:34.245Z,98942.45
2023-02-26T03:47:07.227Z,98952.27
2023-02-26T03:49:40.035Z,98967.36
2023-02-26T03:52:08.780Z,98971.29
2023-02-26T03:55:04.976Z,98984.95
2023-02-26T03:57:56.566Z,98994.07
2023-02-26T04:00:35.508Z,99012.27
2023-02-26T04:03:10.131Z,99031.77
2023-02-26T04:05:40.932Z,99059.19
2023-02-26T04:08:09.978Z,99077.70
2023-02-26T04:10:43.571Z,99090.42
2023-02-26T04:13:15.358Z,99090.66
2023-02-26T04:15:44.847Z,99097.54
2023-02-26T04:18:13.383Z,99100.22
2023-02-26T04:20:42.132Z,99112.30
2023-02-26T04:23:11.949Z,99125.44
2023-02-26T04:25:42.244Z,99111.05
2023-02-26T04:28:12.204Z,99099.02
2023-02-26T04:30:42.159Z,99113.40
2023-02-26T04:33:13.681Z,99131.83
2023-02-26T04:35:42.986Z,99141.66
2023-02-26T04:38:12.282Z,99151.04
2023-02-26T04:40:41.227Z,99160.29
2023-02-26T04:43:11.252Z,99160.77
2023-02-26T04:45:47.224Z,99160.94
2023-02-26T04:48:17.925Z,99164.67
2023-02-26T04:50:49.183Z,99164.75
2023-02-26T04:53:19.438Z,99164.42
2023-02-26T04:55:50.763Z,99160.13
2023-02-26T04:58:24.385Z,99164.59
2023-02-26T05:00:55.158Z,99169.15
2023-02-26T05:03:23.981Z,99173.39
2023-02-26T05:05:52.451Z,99171.08
2023-02-26T05:08:23.603Z,99172.97
2023-02-26T05:10:53.981Z,99179.52
2023-02-26T05:13:22.568Z,99191.23
2023-02-26T05:15:54.182Z,99217.66
2023-02-26T05:18:22.996Z,99232.52
2023-02-26T05:20:55.839Z,99238.70
2023-02-26T05:23:25.094Z,99255.20
2023-02-26T05:25:57.669Z,99272.39
2023-02-26T05:28:26.770Z,99286.89
2023-02-26T05:30:57.420Z,99291.06
2023-02-26T05:33:27.103Z,99301.62
2023-02-26T05:35:58.000Z,99311.42
2023-02-26T05:38:26.659Z,99320.20
2023-02-26T05:40:58.033Z,99321.88
2023-02-26T05:43:27.043Z,99331.05
2023-02-26T05:45:55.876Z,99332.95
2023-02-26T05:48:24.585Z,99338.09
2023-02-26T05:50:53.417Z,99340.67
2023-02-26T05:53:22.144Z,99353.59
2023-02-26T05:55:51.022Z,99358.59
2023-02-26T05:58:21.528Z,99366.13
2023-02-26T06:00:50.731Z,99380.84
2023-02-26T06:03:20.406Z,99382.73
2023-02-26T06:05:49.173Z,99385.38
2023-02-26T06:08:18.762Z,99387.53
2023-02-26T06:10:47.264Z,99392.69
2023-02-26T06:13:16.602Z,99393.94
2023-02-26T06:15:45.273Z,99397.57
2023-02-26T06:18:13.910Z,99401.98
2023-02-26T06:20:45.231Z,99399.89
2023-02-26T06:23:15.402Z,99406.56
2023-02-26T06:25:44.347Z,99413.52
2023-02-26T06:28:13.880Z,99420.15
2023-02-26T06:30:42.654Z,99422.82
2023-02-26T06:33:11.333Z,99429.66
2023-02-26T06:35:40.376Z,99432.90
2023-02-26T06:38:10.866Z,99436.80
2023-02-26T06:40:40.412Z,99442.20
2023-02-26T06:43:09.022Z,99458.17
2023-02-26T06:45:39.910Z,99473.04
2023-02-26T06:48:09.380Z,99485.80
2023-02-26T06:50:38.809Z,99496.04
2023-02-26T06:53:08.134Z,99501.95
2023-02-26T06:55:44.027Z,99490.92
2023-02-26T06:58:12.863Z,99486.70
2023-02-26T07:00:42.480Z,99487.70
2023-02-26T07:03:15.940Z,99493.63
2023-02-26T07:05:45.477Z,99498.08
2023-02-26T07:08:14.293Z,99487.17
2023-02-26T07:10:45.433Z,99485.44
2023-02-26T07:13:16.326Z,99488.48
2023-02-26T07:15:46.331Z,99477.15
2023-02-26T07:18:16.531Z,99477.45
2023-02-26T07:20:45.911Z,99480.70
2023-02-26T07:23:14.591Z,99478.88
2023-02-26T07:25:43.525Z,99485.75
2023-02-26T07:28:18.157Z,99482.48
2023-02-26T07:30:51.822Z,99483.55
2023-02-26T07:33:20.851Z,99490.30
2023-02-26T07:35:49.369Z,99492.13
2023-02-26T07:38:19.635Z,99479.93
2023-02-26T07:40:49.954Z,99487.17
2023-02-26T07:43:19.123Z,99488.47
2023-02-26T07:45:53.178Z,99485.11
2023-02-26T07:48:21.720Z,99489.47
2023-02-26T07:51:03.035Z,99498.85
2023-02-26T07:53:33.423Z,99497.88
2023-02-26T07:56:06.538Z,99505.05
2023-02-26T07:58:36.511Z,99506.06
2023-02-26T08:01:05.234Z,99514.57
2023-02-26T08:03:33.782Z,99519.54
2023-02-26T08:06:03.414Z,99526.89
2023-02-26T08:08:34.850Z,99531.17
2023-02-26T08:11:03.598Z,99551.54
2023-02-26T08:13:32.340Z,99557.48
2023-02-26T08:16:01.038Z,99557.61
2023-02-26T08:18:32.507Z,99565.33
2023-02-26T08:21:02.069Z,99574.27
2023-02-26T08:23:31.270Z,99578.85
2023-02-26T08:26:11.433Z,99581.55
2023-02-26T08:28:40.321Z,99589.55
2023-02-26T08:31:11.566Z,99597.27
2023-02-26T08:33:41.283Z,99611.60
2023-02-26T08:36:10.238Z,99619.46
2023-02-26T08:38:40.864Z,99629.23
2023-02-26T08:41:10.603Z,99640.27
2023-02-26T08:43:39.390Z,99652.72
2023-02-26T08:46:08.427Z,99668.84
2023-02-26T08:48:39.005Z,99679.67
2023-02-26T08:51:08.053Z,99689.40
2023-02-26T08:53:48.442Z,99698.95
2023-02-26T08:56:24.795Z,99699.29
2023-02-26T08:58:53.086Z,99714.11
2023-02-26T09:01:21.514Z,99725.80
2023-02-26T09:03:49.648Z,99735.80
2023-02-26T09:06:17.810Z,99743.19
2023-02-26T09:08:48.201Z,99742.45
2023-02-26T09:11:17.577Z,99750.21
2023-02-26T09:13:46.128Z,99753.41
2023-02-26T09:16:14.946Z,99757.39
2023-02-26T09:18:46.884Z,99762.48
2023-02-26T09:21:15.768Z,99767.79
2023-02-26T09:23:45.492Z,99766.08
2023-02-26T09:26:14.377Z,99770.09
2023-02-26T09:28:43.165Z,99780.42
2023-02-26T09:31:11.998Z,99781.92
2023-02-26T09:33:40.684Z,99780.13
2023-02-26T09:36:10.253Z,99780.91
2023-02-26T09:38:38.603Z,99780.02
2023-02-26T09:41:22.827Z,99785.02
2023-02-26T09:44:04.057Z,99788.27
2023-02-26T09:46:57.309Z,99803.33
2023-02-26T09:49:53.505Z,99805.92
2023-02-26T09:52:33.996Z,99812.47
2023-02-26T09:55:15.736Z,99820.58
2023-02-26T09:57:46.764Z,99825.91
2023-02-26T10:00:20.788Z,99830.04
2023-02-26T10:03:27.045Z,99825.43
2023-02-26T10:06:13.439Z,99831.20
2023-02-26T10:09:21.320Z,99826.04
2023-02-26T10:12:10.883Z,99831.61
2023-02-26T10:14:53.316Z,99836.05
2023-02-26T10:17:53.355Z,99843.81
2023-02-26T10:20:37.112Z,99843.72
2023-02-26T10:23:36.367Z,99843.77
2023-02-26T10:26:22.739Z,99848.88
2023-02-26T10:28:56.960Z,99847.92
2023-02-26T10:31:51.206Z,99840.84
2023-02-26T10:34:37.339Z,99840.11
2023-02-26T10:37:28.280Z,99839.86
2023-02-26T10:40:29.361Z,99847.27
2023-02-26T10:43:23.619Z,99855.34
2023-02-26T10:46:08.180Z,99860.65
2023-02-26T10:48:55.714Z,99865.30
2023-02-26T10:51:26.400Z,99860.77
2023-02-26T10:54:00.384Z,99864.23
2023-02-26T10:56:33.610Z,99869.42
2023-02-26T10:59:08.811Z,99870.77
2023-02-26T11:01:37.499Z,99875.60
2023-02-26T11:04:13.119Z,99872.80
2023-02-26T11:07:05.409Z,99873.20
2023-02-26T11:09:39.851Z,99863.81
2023-02-26T11:12:13.793Z,99871.75
2023-02-26T11:14:43.223Z,99876.28
2023-02-26T11:17:14.720Z,99881.35
2023-02-26T11:19:50.640Z,99888.73
2023-02-26T11:22:19.517Z,99890.94
2023-02-26T11:24:49.710Z,99892.34
2023-02-26T11:27:20.831Z,99896.57
2023-02-26T11:29:58.470Z,99901.86
2023-02-26T11:32:32.552Z,99911.07
2023-02-26T11:35:08.687Z,99910.95
2023-02-26T11:37:40.805Z,99918.29
2023-02-26T11:40:18.343Z,99922.24
2023-02-26T11:42:59.910Z,99914.69
2023-02-26T11:45:28.479Z,99910.05
2023-02-26T11:48:08.326Z,99913.39
2023-02-26T11:50:45.604Z,99915.56
2023-02-26T11:53:50.751Z,99922.29
2023-02-26T11:56:44.103Z,99913.16
2023-02-26T11:59:24.501Z,99921.99
2023-02-26T12:01:53.514Z,99930.36
2023-02-26T12:04:26.210Z,99933.05
2023-02-26T12:06:56.132Z,99933.54
2023-02-26T12:09:25.491Z,99936.31
2023-02-26T12:12:10.886Z,99933.34
2023-02-26T12:14:55.347Z,99929.43
2023-02-26T12:17:47.365Z,99922.33
2023-02-26T12:20:20.227Z,99922.02
2023-02-26T12:23:09.789Z,99916.16
2023-02-26T12:26:18.886Z,99919.71
2023-02-26T12:28:58.857Z,99923.23
2023-02-26T12:31:32.791Z,99930.27
2023-02-26T12:34:15.670Z,99936.46
2023-02-26T12:36:53.375Z,99935.55
2023-02-26T12:39:49.807Z,99937.50
2023-02-26T12:42:25.793Z,99942.36
2023-02-26T12:45:00.843Z,99944.91
2023-02-26T12:47:44.614Z,99941.34
2023-02-26T12:50:45.762Z,99946.27
2023-02-26T12:53:33.374Z,99947.80
2023-02-26T12:56:25.543Z,99949.41
2023-02-26T12:59:13.890Z,99950.89
2023-02-26T13:02:00.861Z,99951.20
2023-02-26T13:04:42.672Z,99952.05
2023-02-26T13:07:38.529Z,99953.30
2023-02-26T13:10:16.009Z,99954.75
2023-02-26T13:12:48.376Z,99956.91
2023-02-26T13:15:44.819Z,99967.66
2023-02-26T13:18:31.723Z,99975.35
2023-02-26T13:21:05.079Z,99977.43
2023-02-26T13:23:47.291Z,99975.58
2023-02-26T13:26:16.764Z,99967.10
2023-02-26T13:29:00.960Z,99965.29
2023-02-26T13:31:54.976Z,99971.54
2023-02-26T13:34:42.670Z,99966.40
2023-02-26T13:37:22.745Z,99967.75
2023-02-26T13:40:08.446Z,99971.84
2023-02-26T13:43:09.979Z,99971.50
2023-02-26T13:46:07.593Z,99972.41
2023-02-26T13:48:36.844Z,99966.14
2023-02-26T13:51:14.605Z,99967.27
2023-02-26T13:53:51.410Z,99966.89
2023-02-26T13:56:28.909Z,99966.15
2023-02-26T13:59:03.318Z,99970.16
2023-02-26T14:01:33.745Z,99971.90
2023-02-26T14:04:15.010Z,99974.34
2023-02-26T14:06:48.807Z,99973.27
2023-02-26T14:09:24.204Z,99977.70
2023-02-26T14:12:01.238Z,99985.00
2023-02-26T14:14:40.942Z,99985.62
2023-02-26T14:17:15.010Z,99980.70
2023-02-26T14:19:55.032Z,99981.91
2023-02-26T14:22:31.608Z,99979.50
2023-02-26T14:25:00.494Z,99974.56
2023-02-26T14:27:46.903Z,99956.05
2023-02-26T14:30:35.018Z,99945.94
2023-02-26T14:33:06.026Z,99933.71
2023-02-26T14:35:43.974Z,99930.34
2023-02-26T14:38:15.181Z,99938.77
2023-02-26T14:40:48.342Z,99940.55
2023-02-26T14:43:39.962Z,99947.19
2023-02-26T14:46:09.810Z,99952.19
2023-02-26T14:48:39.513Z,99956.80
2023-02-26T14:51:28.553Z,99956.10
2023-02-26T14:54:12.993Z,99950.27
2023-02-26T14:57:12.904Z,99954.02
2023-02-26T14:59:56.681Z,99959.25
2023-02-26T15:02:59.479Z,99951.70
2023-02-26T15:05:41.169Z,99956.94
2023-02-26T15:08:36.728Z,99964.86
2023-02-26T15:11:21.404Z,99969.72
2023-02-26T15:13:59.757Z,99990.81
2023-02-26T15:16:47.189Z,100003.34
2023-02-26T15:19:28.372Z,100005.41
2023-02-26T15:22:20.657Z,99999.71
2023-02-26T15:24:49.516Z,99986.20
2023-02-26T15:27:19.529Z,99985.21
2023-02-26T15:29:50.565Z,99992.19
2023-02-26T15:32:30.452Z,99993.44
2023-02-26T15:35:02.070Z,100009.13
2023-02-26T15:37:35.469Z,100016.71
2023-02-26T15:40:06.699Z,100024.96
2023-02-26T15:42:39.360Z,100038.34
2023-02-26T15:45:23.059Z,100046.54
2023-02-26T15:48:00.650Z,100053.61
2023-02-26T15:50:30.278Z,100055.93
2023-02-26T15:53:01.249Z,100052.41
2023-02-26T15:55:35.940Z,100056.79
2023-02-26T15:58:07.041Z,100059.19
2023-02-26T16:00:36.823Z,100055.61
2023-02-26T16:03:10.098Z,100048.88
2023-02-26T16:05:39.317Z,100053.72
2023-02-26T16:08:12.047Z,100058.98
2023-02-26T16:10:42.051Z,100060.14
2023-02-26T16:13:14.838Z,100066.77
2023-02-26T16:15:47.531Z,100071.48
2023-02-26T16:18:18.410Z,100081.09
2023-02-26T16:20:48.733Z,100088.21
2023-02-26T16:23:22.322Z,100095.12
2023-02-26T16:25:51.371Z,100102.26
2023-02-26T16:28:22.570Z,100105.70
2023-02-26T16:30:54.921Z,100107.34
2023-02-26T16:33:25.597Z,100105.63
2023-02-26T16:36:18.062Z,100103.33
2023-02-26T16:39:01.683Z,100104.42
2023-02-26T16:41:35.399Z,100103.20
2023-02-26T16:44:38.281Z,100094.73
2023-02-26T16:47:08.656Z,100097.21
2023-02-26T16:49:38.036Z,100096.81
2023-02-26T16:52:06.994Z,100105.83
2023-02-26T16:54:38.569Z,100107.16
2023-02-26T16:57:17.576Z,100109.91
2023-02-26T16:59:53.579Z,100120.83
2023-02-26T17:02:24.972Z,100132.39
2023-02-26T17:05:00.288Z,100128.23
2023-02-26T17:07:34.302Z,100132.00
2023-02-26T17:10:20.881Z,100120.65
2023-02-26T17:12:51.121Z,100106.84
2023-02-26T17:15:36.497Z,100084.98
2023-02-26T17:18:10.017Z,100069.06
2023-02-26T17:20:40.695Z,100062.14
2023-02-26T17:23:09.541Z,100062.57
2023-02-26T17:25:40.330Z,100053.96
2023-02-26T17:28:18.014Z,100049.27
2023-02-26T17:30:46.861Z,100051.50
2023-02-26T17:33:15.715Z,100056.27
2023-02-26T17:35:44.749Z,100059.41
2023-02-26T17:38:14.612Z,100064.73
2023-02-26T17:40:45.564Z,100053.44
2023-02-26T17:43:14.870Z,100047.71
2023-02-26T17:45:44.366Z,100046.39
2023-02-26T17:48:16.325Z,100052.61
2023-02-26T17:50:55.613Z,100053.84
2023-02-26T17:53:27.771Z,100046.60
2023-02-26T17:55:56.941Z,100036.27
2023-02-26T17:58:32.304Z,100029.33
2023-02-26T18:01:03.061Z,100019.23
2023-02-26T18:03:32.249Z,100015.03
2023-02-26T18:06:01.329Z,100008.44
2023-02-26T18:08:32.312Z,100008.27
2023-02-26T18:11:03.534Z,100003.13
2023-02-26T18:13:33.029Z,99982.45
2023-02-26T18:16:02.525Z,99975.19
2023-02-26T18:18:33.968Z,99982.31
2023-02-26T18:21:02.981Z,99985.66
2023-02-26T18:23:34.971Z,99991.02
2023-02-26T18:26:03.850Z,99995.39
2023-02-26T18:28:33.267Z,100001.52
2023-02-26T18:31:08.927Z,99998.45
2023-02-26T18:33:41.757Z,99991.27
2023-02-26T18:36:24.195Z,99992.44
2023-02-26T18:38:54.928Z,99980.29
2023-02-26T18:41:25.155Z,99987.73
2023-02-26T18:43:54.390Z,99976.54
2023-02-26T18:46:27.264Z,99982.34
2023-02-26T18:48:56.782Z,99983.98
2023-02-26T18:51:30.697Z,99983.11
2023-02-26T18:53:59.516Z,99992.60
2023-02-26T18:56:29.059Z,99984.96
2023-02-26T18:58:58.126Z,99993.38
2023-02-26T19:01:30.544Z,99988.09
2023-02-26T19:03:59.824Z,99983.27
2023-02-26T19:06:29.083Z,99982.19
2023-02-26T19:09:02.955Z,99972.66
2023-02-26T19:11:31.748Z,99965.50
2023-02-26T19:14:01.519Z,99947.84
2023-02-26T19:16:35.337Z,99934.75
2023-02-26T19:19:11.971Z,99923.41
2023-02-26T19:21:41.880Z,99910.44
2023-02-26T19:24:11.795Z,99899.56
2023-02-26T19:26:42.483Z,99891.41
2023-02-26T19:29:16.737Z,99885.79
2023-02-26T19:31:46.342Z,99884.68
2023-02-26T19:34:15.173Z,99873.05
2023-02-26T19:36:48.554Z,99865.38
2023-02-26T19:39:18.895Z,99851.30
2023-02-26T19:41:51.035Z,99839.83
2023-02-26T19:44:20.483Z,99827.10
2023-02-26T19:46:49.144Z,99811.61
2023-02-26T19:49:18.398Z,99800.32
2023-02-26T19:51:46.924Z,99788.05
2023-02-26T19:54:15.689Z,99782.84
2023-02-26T19:56:44.650Z,99783.11
2023-02-26T19:59:13.386Z,99784.17
2023-02-26T20:01:44.376Z,99780.87
2023-02-26T20:04:14.050Z,99775.97
2023-02-26T20:06:44.469Z,99776.27
2023-02-26T20:09:17.387Z,99777.61
2023-02-26T20:11:47.497Z,99784.02
2023-02-26T20:14:16.737Z,99789.48
2023-02-26T20:16:47.335Z,99785.54
2023-02-26T20:19:16.254Z,99785.86
2023-02-26T20:21:49.757Z,99779.39
2023-02-26T20:24:20.169Z,99773.55
2023-02-26T20:26:49.240Z,99760.98
2023-02-26T20:29:18.758Z,99746.08
2023-02-26T20:31:50.411Z,99739.50
2023-02-26T20:34:19.648Z,99735.30
2023-02-26T20:36:50.184Z,99725.27
2023-02-26T20:39:39.570Z,99723.21
2023-02-26T20:42:09.060Z,99722.55
2023-02-26T20:44:37.776Z,99721.20
2023-02-26T20:47:06.498Z,99705.95
2023-02-26T20:49:35.257Z,99700.02
2023-02-26T20:52:04.830Z,99689.70
2023-02-26T20:54:34.347Z,99683.52
2023-02-26T20:57:03.443Z,99678.45
2023-02-26T20:59:33.010Z,99670.55
2023-02-26T21:02:08.503Z,99665.89
2023-02-26T21:04:38.341Z,99663.50
2023-02-26T21:07:22.188Z,99662.27
2023-02-26T21:09:55.751Z,99671.19
2023-02-26T21:12:24.582Z,99676.70
2023-02-26T21:14:55.955Z,99681.30
2023-02-26T21:17:25.338Z,99689.90
2023-02-26T21:19:54.095Z,99688.98
2023-02-26T21:22:24.255Z,99694.09
2023-02-26T21:24:54.975Z,99696.43
2023-02-26T21:27:24.194Z,99701.86
2023-02-26T21:29:52.842Z,99703.77
2023-02-26T21:32:21.597Z,99694.86
2023-02-26T21:34:50.640Z,99688.48
2023-02-26T21:37:20.782Z,99681.99
2023-02-26T21:39:49.784Z,99675.95
2023-02-26T21:42:18.628Z,99661.92
2023-02-26T21:44:48.630Z,99649.42
2023-02-26T21:47:18.321Z,99641.89
2023-02-26T21:49:49.566Z,99642.14
2023-02-26T21:52:18.554Z,99639.88
2023-02-26T21:54:47.542Z,99642.61
2023-02-26T21:57:15.560Z,99633.65
2023-02-26T21:59:43.582Z,99623.64
2023-02-26T22:02:12.212Z,99621.30
2023-02-26T22:04:42.321Z,99620.54
2023-02-26T22:07:11.612Z,99620.48
2023-02-26T22:09:40.149Z,99625.81
2023-02-26T22:12:08.809Z,99636.66
2023-02-26T22:14:37.373Z,99640.63
2023-02-26T22:17:06.352Z,99639.23
2023-02-26T22:19:36.996Z,99646.77
2023-02-26T22:22:05.580Z,99645.34
2023-02-26T22:24:35.190Z,99648.79
2023-02-26T22:27:04.128Z,99652.48
2023-02-26T22:29:34.284Z,99654.45
2023-02-26T22:32:03.110Z,99667.09
2023-02-26T22:34:33.924Z,99674.58
2023-02-26T22:37:02.540Z,99695.35
2023-02-26T22:39:31.446Z,99711.20
2023-02-26T22:42:00.152Z,99729.39
2023-02-26T22:44:29.033Z,99741.19
2023-02-26T22:46:58.083Z,99798.08
2023-02-26T22:49:26.920Z,99800.38
2023-02-26T22:51:56.488Z,99820.93
2023-02-26T22:54:25.700Z,99890.35
2023-02-26T22:56:54.589Z,99907.05
2023-02-26T22:59:23.478Z,99914.44
2023-02-26T23:01:52.070Z,99926.52
2023-02-26T23:04:20.881Z,99941.26
2023-02-26T23:06:49.508Z,99948.27
2023-02-26T23:09:18.473Z,99961.80
2023-02-26T23:11:47.471Z,99991.26
2023-02-26T23:14:23.775Z,100006.23
2023-02-26T23:16:52.286Z,100017.56
2023-02-26T23:19:21.164Z,100032.13
2023-02-26T23:21:50.150Z,100042.92
2023-02-26T23:24:18.895Z,100054.52
2023-02-26T23:26:51.747Z,100073.60
2023-02-26T23:29:24.567Z,100100.32
2023-02-26T23:31:53.429Z,100115.58
2023-02-26T23:34:22.243Z,100109.89
2023-02-26T23:36:51.361Z,100109.20
2023-02-26T23:39:20.473Z,100124.02
2023-02-26T23:41:49.179Z,100144.11
2023-02-26T23:44:18.079Z,100143.48
2023-02-26T23:46:46.725Z,100157.33
2023-02-26T23:49:19.746Z,100163.09
2023-02-26T23:51:49.566Z,100168.68
2023-02-26T23:54:18.240Z,100176.05
2023-02-26T23:56:48.504Z,100184.53
2023-02-26T23:59:18.693Z,100187.52
